createdAt,value
2022-12-06T00:01:25.368Z,25.90
2022-12-06T00:03:54.902Z,28.33
2022-12-06T00:06:24.104Z,30.23
2022-12-06T00:08:52.729Z,26.93
2022-12-06T00:11:24.651Z,28.87
2022-12-06T00:13:54.307Z,32.90
2022-12-06T00:16:22.390Z,32.43
2022-12-06T00:18:50.201Z,32.53
2022-12-06T00:21:20.868Z,32.30
2022-12-06T00:23:50.825Z,30.10
2022-12-06T00:26:19.339Z,30.90
2022-12-06T00:28:49.164Z,30.37
2022-12-06T00:31:20.112Z,29.97
2022-12-06T00:33:48.344Z,31.43
2022-12-06T00:36:18.112Z,31.43
2022-12-06T00:38:46.139Z,29.37
2022-12-06T00:41:15.762Z,29.77
2022-12-06T00:43:43.584Z,31.83
2022-12-06T00:46:17.170Z,33.00
2022-12-06T00:48:45.039Z,31.17
2022-12-06T00:51:12.808Z,34.90
2022-12-06T00:53:40.701Z,31.67
2022-12-06T00:56:08.629Z,33.63
2022-12-06T00:58:36.331Z,30.97
2022-12-06T01:01:13.739Z,32.23
2022-12-06T01:03:41.948Z,31.90
2022-12-06T01:06:11.941Z,34.13
2022-12-06T01:08:40.954Z,34.33
2022-12-06T01:11:09.718Z,34.53
2022-12-06T01:13:37.581Z,34.13
2022-12-06T01:16:06.959Z,35.97
2022-12-06T01:18:36.460Z,39.37
2022-12-06T01:21:06.041Z,39.83
2022-12-06T01:23:33.625Z,35.37
2022-12-06T01:26:01.244Z,39.57
2022-12-06T01:28:28.814Z,37.03
2022-12-06T01:30:56.398Z,36.80
2022-12-06T01:33:24.058Z,36.80
2022-12-06T01:35:52.915Z,37.50
2022-12-06T01:38:20.455Z,36.87
2022-12-06T01:40:48.990Z,35.80
2022-12-06T01:43:34.157Z,35.50
2022-12-06T01:46:08.077Z,38.10
2022-12-06T01:48:36.114Z,37.07
2022-12-06T01:51:08.752Z,34.97
2022-12-06T01:53:37.970Z,33.37
2022-12-06T01:56:06.956Z,31.83
2022-12-06T01:58:38.914Z,31.10
2022-12-06T02:01:07.983Z,30.50
2022-12-06T02:03:36.617Z,28.57
2022-12-06T02:06:08.197Z,30.90
2022-12-06T02:08:37.791Z,30.97
2022-12-06T02:11:06.366Z,29.60
2022-12-06T02:13:36.843Z,32.53
2022-12-06T02:16:23.629Z,32.03
2022-12-06T02:18:56.827Z,31.40
2022-12-06T02:21:32.499Z,28.50
2022-12-06T02:24:22.465Z,31.43
2022-12-06T02:26:52.689Z,30.13
2022-12-06T02:29:44.327Z,33.93
2022-12-06T02:32:19.074Z,30.80
2022-12-06T02:34:50.034Z,29.57
2022-12-06T02:37:23.531Z,26.13
2022-12-06T02:39:56.633Z,26.90
2022-12-06T02:42:28.058Z,29.53
2022-12-06T02:44:57.274Z,29.40
2022-12-06T02:47:31.540Z,31.00
2022-12-06T02:50:01.171Z,30.73
2022-12-06T02:52:30.800Z,31.57
2022-12-06T02:55:01.170Z,31.53
2022-12-06T02:57:40.037Z,28.43
2022-12-06T03:00:29.610Z,35.23
2022-12-06T03:03:08.238Z,27.10
2022-12-06T03:05:40.920Z,27.07
2022-12-06T03:08:18.559Z,32.37
2022-12-06T03:10:53.676Z,30.97
2022-12-06T03:13:27.004Z,28.90
2022-12-06T03:15:59.836Z,27.37
2022-12-06T03:18:33.298Z,32.90
2022-12-06T03:21:03.847Z,30.83
2022-12-06T03:23:36.043Z,33.50
2022-12-06T03:26:05.130Z,30.47
2022-12-06T03:28:36.370Z,31.47
2022-12-06T03:31:10.291Z,29.13
2022-12-06T03:33:43.155Z,28.43
2022-12-06T03:36:13.164Z,27.57
2022-12-06T03:38:47.817Z,26.17
2022-12-06T03:41:19.339Z,26.47
2022-12-06T03:43:46.900Z,29.67
2022-12-06T03:46:18.515Z,26.47
2022-12-06T03:48:50.814Z,25.67
2022-12-06T03:51:24.676Z,32.20
2022-12-06T03:53:54.804Z,26.50
2022-12-06T03:56:23.488Z,26.43
2022-12-06T03:58:51.047Z,26.03
2022-12-06T04:01:18.938Z,27.63
2022-12-06T04:03:47.997Z,26.17
2022-12-06T04:06:15.952Z,24.43
2022-12-06T04:08:43.477Z,27.93
2022-12-06T04:11:10.987Z,28.33
2022-12-06T04:13:38.582Z,26.73
2022-12-06T04:16:27.920Z,24.50
2022-12-06T04:18:56.252Z,27.43
2022-12-06T04:21:41.498Z,24.90
2022-12-06T04:24:09.110Z,25.20
2022-12-06T04:26:36.610Z,27.33
2022-12-06T04:29:21.609Z,30.20
2022-12-06T04:32:06.634Z,26.87
2022-12-06T04:34:53.166Z,23.57
2022-12-06T04:37:38.199Z,27.27
2022-12-06T04:40:07.196Z,25.30
2022-12-06T04:42:52.329Z,22.97
2022-12-06T04:45:19.868Z,25.10
2022-12-06T04:47:47.398Z,23.53
2022-12-06T04:50:16.328Z,28.57
2022-12-06T04:52:43.941Z,27.43
2022-12-06T04:55:11.467Z,24.80
2022-12-06T04:57:39.016Z,23.73
2022-12-06T05:00:08.096Z,26.00
2022-12-06T05:02:35.640Z,24.67
2022-12-06T05:05:03.618Z,24.17
2022-12-06T05:07:32.613Z,25.47
2022-12-06T05:10:00.460Z,25.27
2022-12-06T05:12:28.251Z,23.80
2022-12-06T05:14:55.751Z,25.53
2022-12-06T05:17:23.272Z,25.83
2022-12-06T05:19:50.794Z,23.93
2022-12-06T05:22:18.336Z,25.27
2022-12-06T05:24:47.185Z,25.77
2022-12-06T05:27:14.699Z,26.03
2022-12-06T05:29:42.247Z,29.40
2022-12-06T05:32:09.761Z,29.33
2022-12-06T05:34:37.283Z,24.23
2022-12-06T05:37:04.790Z,26.20
2022-12-06T05:39:32.345Z,26.33
2022-12-06T05:42:01.204Z,26.23
2022-12-06T05:44:28.716Z,24.03
2022-12-06T05:46:56.233Z,28.37
2022-12-06T05:49:23.781Z,27.70
2022-12-06T05:51:51.486Z,29.60
2022-12-06T05:54:19.158Z,28.90
2022-12-06T05:56:46.843Z,28.83
2022-12-06T05:59:15.695Z,30.00
2022-12-06T06:01:43.362Z,27.77
2022-12-06T06:04:11.117Z,27.87
2022-12-06T06:06:38.633Z,28.93
2022-12-06T06:09:06.147Z,28.87
2022-12-06T06:11:33.690Z,29.97
2022-12-06T06:14:01.239Z,32.53
2022-12-06T06:16:30.259Z,33.67
2022-12-06T06:18:57.847Z,32.03
2022-12-06T06:21:25.371Z,31.23
2022-12-06T06:23:52.878Z,32.13
2022-12-06T06:26:20.406Z,33.93
2022-12-06T06:28:48.162Z,35.30
2022-12-06T06:31:16.563Z,34.97
2022-12-06T06:33:45.512Z,35.87
2022-12-06T06:36:13.074Z,39.77
2022-12-06T06:38:40.658Z,34.17
2022-12-06T06:41:08.835Z,35.23
2022-12-06T06:43:36.362Z,31.77
2022-12-06T06:46:06.740Z,31.93
2022-12-06T06:48:36.812Z,38.13
2022-12-06T06:51:09.168Z,36.37
2022-12-06T06:53:37.778Z,33.50
2022-12-06T06:56:05.812Z,32.93
2022-12-06T06:58:33.491Z,32.40
2022-12-06T07:01:03.145Z,31.90
2022-12-06T07:03:31.240Z,33.60
2022-12-06T07:06:01.036Z,34.33
2022-12-06T07:08:31.870Z,34.37
2022-12-06T07:10:59.899Z,37.27
2022-12-06T07:13:29.770Z,37.63
2022-12-06T07:15:58.279Z,41.20
2022-12-06T07:18:26.497Z,38.57
2022-12-06T07:21:00.295Z,45.37
2022-12-06T07:23:28.318Z,40.23
2022-12-06T07:26:02.631Z,37.87
2022-12-06T07:28:30.206Z,37.83
2022-12-06T07:30:57.880Z,39.97
2022-12-06T07:33:25.508Z,38.23
2022-12-06T07:38:42.473Z,38.37
2022-12-06T07:41:31.055Z,36.10
2022-12-06T07:44:16.968Z,39.23
2022-12-06T07:46:44.608Z,39.87
2022-12-06T07:49:12.566Z,37.50
2022-12-06T07:51:40.824Z,39.47
2022-12-06T07:54:09.008Z,40.30
2022-12-06T07:56:37.992Z,41.63
2022-12-06T07:59:05.586Z,39.97
2022-12-06T08:01:33.198Z,39.63
2022-12-06T08:04:01.684Z,38.07
2022-12-06T08:06:29.536Z,35.63
2022-12-06T08:08:57.173Z,35.07
2022-12-06T08:11:24.996Z,34.27
2022-12-06T08:13:53.840Z,33.83
2022-12-06T08:16:21.447Z,35.27
2022-12-06T08:18:49.704Z,38.97
2022-12-06T08:21:18.541Z,36.37
2022-12-06T08:23:46.079Z,36.33
2022-12-06T08:26:16.628Z,40.80
2022-12-06T08:28:44.176Z,39.20
2022-12-06T08:31:15.337Z,37.77
2022-12-06T08:33:42.987Z,38.03
2022-12-06T08:36:12.840Z,34.63
2022-12-06T08:38:41.238Z,36.67
2022-12-06T08:41:30.176Z,32.83
2022-12-06T08:43:59.528Z,32.53
2022-12-06T08:46:30.091Z,35.27
2022-12-06T08:48:58.140Z,32.63
2022-12-06T08:51:29.552Z,43.53
2022-12-06T08:53:57.870Z,30.90
2022-12-06T08:56:25.611Z,29.27
2022-12-06T08:58:53.946Z,29.53
2022-12-06T09:01:24.885Z,33.27
2022-12-06T09:03:54.080Z,36.00
2022-12-06T09:06:22.934Z,35.90
2022-12-06T09:08:50.778Z,32.90
2022-12-06T09:11:19.336Z,30.03
2022-12-06T09:13:47.276Z,32.83
2022-12-06T09:16:16.977Z,30.73
2022-12-06T09:18:45.054Z,31.40
2022-12-06T09:21:16.892Z,31.13
2022-12-06T09:23:47.358Z,31.87
2022-12-06T09:26:15.479Z,30.60
2022-12-06T09:28:44.489Z,28.70
2022-12-06T09:31:12.257Z,28.53
2022-12-06T09:33:39.814Z,30.33
2022-12-06T09:36:12.989Z,28.10
2022-12-06T09:38:44.996Z,30.67
2022-12-06T09:41:29.167Z,29.33
2022-12-06T09:44:09.647Z,28.10
2022-12-06T09:46:53.892Z,30.63
2022-12-06T09:49:30.687Z,27.87
2022-12-06T09:52:20.580Z,28.40
2022-12-06T09:55:06.068Z,29.90
2022-12-06T09:57:43.036Z,29.27
2022-12-06T10:00:18.977Z,30.10
2022-12-06T10:03:15.388Z,30.07
2022-12-06T10:05:58.012Z,30.73
2022-12-06T10:08:43.704Z,30.03
2022-12-06T10:11:21.554Z,31.37
2022-12-06T10:14:01.009Z,30.23
2022-12-06T10:16:47.292Z,28.57
2022-12-06T10:19:24.636Z,27.90
2022-12-06T10:22:04.802Z,30.53
2022-12-06T10:24:45.320Z,28.00
2022-12-06T10:27:23.943Z,27.93
2022-12-06T10:29:57.293Z,25.97
2022-12-06T10:32:39.266Z,25.07
2022-12-06T10:35:18.561Z,26.03
2022-12-06T10:37:59.175Z,24.80
2022-12-06T10:40:31.794Z,21.37
2022-12-06T10:43:10.976Z,24.17
2022-12-06T10:46:05.647Z,25.53
2022-12-06T10:48:42.560Z,22.60
2022-12-06T10:51:15.438Z,20.90
2022-12-06T10:53:48.464Z,21.27
2022-12-06T10:56:20.610Z,22.80
2022-12-06T10:58:56.236Z,19.37
2022-12-06T11:01:28.269Z,20.27
2022-12-06T11:04:01.600Z,19.73
2022-12-06T11:06:33.042Z,19.97
2022-12-06T11:09:06.903Z,20.23
2022-12-06T11:11:37.439Z,18.97
2022-12-06T11:14:15.155Z,20.40
2022-12-06T11:16:48.731Z,20.20
2022-12-06T11:19:24.145Z,16.40
2022-12-06T11:21:56.388Z,18.83
2022-12-06T11:24:29.907Z,15.63
2022-12-06T11:27:02.473Z,16.57
2022-12-06T11:29:31.561Z,16.87
2022-12-06T11:32:02.699Z,18.63
2022-12-06T11:34:33.932Z,15.93
2022-12-06T11:37:03.454Z,14.63
2022-12-06T11:39:32.491Z,16.03
2022-12-06T11:42:03.945Z,16.60
2022-12-06T11:44:44.975Z,15.17
2022-12-06T11:47:20.236Z,13.47
2022-12-06T11:49:48.536Z,16.07
2022-12-06T11:52:22.838Z,15.53
2022-12-06T11:54:55.922Z,15.80
2022-12-06T11:57:26.598Z,14.93
2022-12-06T12:00:16.527Z,16.00
2022-12-06T12:02:46.374Z,16.00
2022-12-06T12:05:20.459Z,13.33
2022-12-06T12:07:51.695Z,15.20
2022-12-06T12:10:30.382Z,15.90
2022-12-06T12:13:22.746Z,12.70
2022-12-06T12:15:54.201Z,14.17
2022-12-06T12:18:26.688Z,14.57
2022-12-06T12:20:55.866Z,15.10
2022-12-06T12:23:27.270Z,14.83
2022-12-06T12:26:05.750Z,14.77
2022-12-06T12:28:35.478Z,14.50
2022-12-06T12:31:12.867Z,13.53
2022-12-06T12:33:40.377Z,16.80
2022-12-06T12:36:17.774Z,15.57
2022-12-06T12:38:54.738Z,14.47
2022-12-06T12:41:30.098Z,16.77
2022-12-06T12:44:35.962Z,16.67
2022-12-06T12:46:55.369Z,12.53
2022-12-06T12:49:27.883Z,14.37
2022-12-06T12:51:55.557Z,13.40
2022-12-06T12:54:27.760Z,14.13
2022-12-06T12:56:55.566Z,12.50
2022-12-06T12:59:25.199Z,15.73
2022-12-06T13:01:59.371Z,13.63
2022-12-06T13:04:42.322Z,13.60
2022-12-06T13:07:18.172Z,13.33
2022-12-06T13:09:52.437Z,11.47
2022-12-06T13:12:24.309Z,14.40
2022-12-06T13:14:55.038Z,13.20
2022-12-06T13:17:27.776Z,10.63
2022-12-06T13:19:55.461Z,11.23
2022-12-06T13:22:30.654Z,12.20
2022-12-06T13:25:02.424Z,12.17
2022-12-06T13:27:33.809Z,13.37
2022-12-06T13:30:07.284Z,11.33
2022-12-06T13:32:45.127Z,11.97
2022-12-06T13:35:22.921Z,12.20
2022-12-06T13:37:56.126Z,12.27
2022-12-06T13:40:47.308Z,11.67
2022-12-06T13:43:54.632Z,11.97
2022-12-06T13:46:32.209Z,13.63
2022-12-06T13:49:03.538Z,18.07
2022-12-06T13:51:49.580Z,15.13
2022-12-06T13:54:33.426Z,12.60
2022-12-06T13:57:04.801Z,15.00
2022-12-06T13:59:37.827Z,14.63
2022-12-06T14:02:53.702Z,15.17
2022-12-06T14:08:32.376Z,13.27
2022-12-06T14:11:07.974Z,13.90
2022-12-06T14:13:35.517Z,13.73
2022-12-06T14:16:03.152Z,17.07
2022-12-06T14:18:30.776Z,13.40
2022-12-06T14:20:59.794Z,12.47
2022-12-06T14:23:30.563Z,14.23
2022-12-06T14:26:21.262Z,12.07
2022-12-06T14:28:49.803Z,14.80
2022-12-06T14:31:26.705Z,11.90
2022-12-06T14:33:55.530Z,13.10
2022-12-06T14:36:28.063Z,12.03
2022-12-06T14:39:01.583Z,13.20
2022-12-06T14:41:55.357Z,10.87
2022-12-06T14:44:28.998Z,12.83
2022-12-06T14:46:57.821Z,12.50
2022-12-06T14:49:44.148Z,12.20
2022-12-06T14:52:25.392Z,11.57
2022-12-06T14:55:07.816Z,11.97
2022-12-06T14:57:39.041Z,11.87
2022-12-06T15:00:25.259Z,11.50
2022-12-06T15:03:22.604Z,11.13
2022-12-06T15:05:57.188Z,16.10
2022-12-06T15:08:36.552Z,17.07
2022-12-06T15:11:06.910Z,19.27
2022-12-06T15:13:33.480Z,11.73
2022-12-06T15:16:13.685Z,9.70
2022-12-06T15:18:43.135Z,9.33
2022-12-06T15:21:13.083Z,7.93
2022-12-06T15:23:48.874Z,8.53
2022-12-06T15:26:16.775Z,9.27
2022-12-06T15:28:44.697Z,7.90
2022-12-06T15:31:19.081Z,8.70
2022-12-06T15:33:46.831Z,8.80
2022-12-06T15:36:17.916Z,10.07
2022-12-06T15:38:46.903Z,13.90
2022-12-06T15:41:17.488Z,9.97
2022-12-06T15:43:46.022Z,13.40
2022-12-06T15:46:18.613Z,8.00
2022-12-06T15:48:46.345Z,16.20
2022-12-06T15:51:20.344Z,19.13
2022-12-06T15:53:50.853Z,22.80
2022-12-06T15:56:20.559Z,16.40
2022-12-06T15:58:48.960Z,13.33
2022-12-06T16:01:18.319Z,11.20
2022-12-06T16:03:47.156Z,12.13
2022-12-06T16:06:16.345Z,12.93
2022-12-06T16:08:44.606Z,10.40
2022-12-06T16:11:15.393Z,15.30
2022-12-06T16:13:43.507Z,12.43
2022-12-06T16:16:11.541Z,14.83
2022-12-06T16:18:39.524Z,14.33
2022-12-06T16:21:07.451Z,11.20
2022-12-06T16:26:44.293Z,18.17
2022-12-06T16:29:14.379Z,19.53
2022-12-06T16:31:42.222Z,18.80
2022-12-06T16:34:10.310Z,22.97
2022-12-06T16:36:55.116Z,10.00
2022-12-06T16:39:22.728Z,13.47
2022-12-06T16:41:51.666Z,12.43
2022-12-06T16:44:19.206Z,10.17
2022-12-06T16:46:46.849Z,12.83
2022-12-06T16:52:06.014Z,16.47
2022-12-06T16:54:33.538Z,9.00
2022-12-06T16:57:02.484Z,8.47
2022-12-06T16:59:30.052Z,10.03
2022-12-06T17:01:57.579Z,13.73
2022-12-06T17:04:26.000Z,10.00
2022-12-06T17:06:53.517Z,9.70
2022-12-06T17:09:21.026Z,10.47
2022-12-06T17:12:06.016Z,9.90
2022-12-06T17:14:36.041Z,12.23
2022-12-06T17:17:06.506Z,15.47
2022-12-06T17:19:34.635Z,28.53
2022-12-06T17:22:03.262Z,20.97
2022-12-06T17:24:31.108Z,19.30
2022-12-06T17:26:58.958Z,16.50
2022-12-06T17:29:26.945Z,18.77
2022-12-06T17:31:56.667Z,23.83
2022-12-06T17:34:25.657Z,21.83
2022-12-06T17:36:53.732Z,34.53
2022-12-06T17:39:22.378Z,24.07
2022-12-06T17:42:07.718Z,18.17
2022-12-06T17:44:35.344Z,13.43
2022-12-06T17:47:04.271Z,14.40
2022-12-06T17:49:31.822Z,16.30
2022-12-06T17:51:59.382Z,14.17
2022-12-06T17:54:26.886Z,12.33
2022-12-06T17:56:55.874Z,14.53
2022-12-06T17:59:25.987Z,32.17
2022-12-06T18:02:14.687Z,25.03
2022-12-06T18:04:44.993Z,21.13
2022-12-06T18:07:13.656Z,26.13
2022-12-06T18:09:41.573Z,26.27
2022-12-06T18:12:09.962Z,16.83
2022-12-06T18:14:37.607Z,22.23
2022-12-06T18:17:05.552Z,21.67
2022-12-06T18:19:36.419Z,20.17
2022-12-06T18:22:07.680Z,21.17
2022-12-06T18:24:36.145Z,20.10
2022-12-06T18:27:04.714Z,21.83
2022-12-06T18:29:32.923Z,24.30
2022-12-06T18:32:00.564Z,35.27
2022-12-06T18:34:28.204Z,14.20
2022-12-06T18:36:55.756Z,18.40
2022-12-06T18:39:25.283Z,21.80
2022-12-06T18:41:53.901Z,22.40
2022-12-06T18:44:21.511Z,18.33
2022-12-06T18:46:49.077Z,18.40
2022-12-06T18:49:16.829Z,18.40
2022-12-06T18:51:44.371Z,15.77
2022-12-06T19:04:35.296Z,16.13
2022-12-06T19:07:02.798Z,22.20
2022-12-06T19:09:30.318Z,23.37
2022-12-06T19:11:57.835Z,17.03
2022-12-06T19:14:25.340Z,14.67
2022-12-06T19:16:54.272Z,20.50
2022-12-06T19:19:23.825Z,21.77
2022-12-06T19:21:52.806Z,18.57
2022-12-06T19:24:22.359Z,18.60
2022-12-06T19:26:51.783Z,14.80
2022-12-06T19:29:19.710Z,19.10
2022-12-06T19:31:47.360Z,20.67
2022-12-06T19:34:18.703Z,17.73
2022-12-06T19:36:46.987Z,19.40
2022-12-06T19:39:14.770Z,21.10
2022-12-06T19:42:00.102Z,18.17
2022-12-06T19:44:28.880Z,15.13
2022-12-06T19:46:57.302Z,17.13
2022-12-06T19:49:27.123Z,16.40
2022-12-06T19:51:54.710Z,13.23
2022-12-06T19:54:24.786Z,9.03
2022-12-06T19:56:54.133Z,10.70
2022-12-06T19:59:22.260Z,8.63
2022-12-06T20:01:50.448Z,10.37
2022-12-06T20:04:20.475Z,13.57
2022-12-06T20:06:49.669Z,10.93
2022-12-06T20:09:18.066Z,10.77
2022-12-06T20:12:05.253Z,9.77
2022-12-06T20:14:36.803Z,12.97
2022-12-06T20:17:06.867Z,10.87
2022-12-06T20:19:34.895Z,8.77
2022-12-06T20:22:03.980Z,10.70
2022-12-06T20:24:31.532Z,10.93
2022-12-06T20:26:59.018Z,10.03
2022-12-06T20:29:29.771Z,9.33
2022-12-06T20:31:59.284Z,9.47
2022-12-06T20:34:28.808Z,11.03
2022-12-06T20:36:56.440Z,9.67
2022-12-06T20:39:27.586Z,10.17
2022-12-06T20:41:55.441Z,10.67
2022-12-06T20:44:23.208Z,13.33
2022-12-06T20:46:51.278Z,11.33
2022-12-06T20:49:18.846Z,12.37
2022-12-06T20:51:52.437Z,11.37
2022-12-06T20:54:21.035Z,9.70
2022-12-06T20:56:51.617Z,11.80
2022-12-06T20:59:19.727Z,11.63
2022-12-06T21:01:47.615Z,11.50
2022-12-06T21:04:15.772Z,10.57
2022-12-06T21:06:43.687Z,12.67
2022-12-06T21:09:11.293Z,10.40
2022-12-06T21:11:38.909Z,10.00
2022-12-06T21:14:07.776Z,10.97
2022-12-06T21:16:38.037Z,10.17
2022-12-06T21:19:07.024Z,10.73
2022-12-06T21:21:36.336Z,10.90
2022-12-06T21:24:05.892Z,11.10
2022-12-06T21:26:34.240Z,10.37
2022-12-06T21:29:01.803Z,9.57
2022-12-06T21:31:33.620Z,11.67
2022-12-06T21:34:01.426Z,11.67
2022-12-06T21:36:29.624Z,11.13
2022-12-06T21:38:58.181Z,12.77
2022-12-06T21:41:26.566Z,12.30
2022-12-06T21:43:54.291Z,14.33
2022-12-06T21:46:24.191Z,16.10
2022-12-06T21:48:54.031Z,13.90
2022-12-06T21:51:22.105Z,14.20
2022-12-06T21:53:50.273Z,14.33
2022-12-06T21:56:20.426Z,14.67
2022-12-06T21:58:48.956Z,13.60
2022-12-06T22:01:18.318Z,14.93
2022-12-06T22:03:48.977Z,14.17
2022-12-06T22:06:18.389Z,15.73
2022-12-06T22:08:47.345Z,21.30
2022-12-06T22:11:16.628Z,11.43
2022-12-06T22:13:44.895Z,14.23
2022-12-06T22:16:13.563Z,15.50
2022-12-06T22:18:45.753Z,14.27
2022-12-06T22:21:15.695Z,17.80
2022-12-06T22:23:45.056Z,17.77
2022-12-06T22:26:15.631Z,16.50
2022-12-06T22:28:43.389Z,16.77
2022-12-06T22:31:12.289Z,13.07
2022-12-06T22:33:40.229Z,14.33
2022-12-06T22:36:08.957Z,12.43
2022-12-06T22:38:36.683Z,12.23
2022-12-06T22:41:06.885Z,16.33
2022-12-06T22:43:35.131Z,11.87
2022-12-06T22:46:07.371Z,12.57
2022-12-06T22:48:35.180Z,13.40
2022-12-06T22:51:10.847Z,18.20
2022-12-06T22:53:38.520Z,24.53
2022-12-06T22:56:07.930Z,22.13
2022-12-06T22:58:35.494Z,21.20
2022-12-06T23:01:11.887Z,15.63
2022-12-06T23:03:43.860Z,23.17
2022-12-06T23:06:11.434Z,22.30
2022-12-06T23:08:39.070Z,18.17
2022-12-06T23:11:11.096Z,15.60
2022-12-06T23:13:38.598Z,15.43
2022-12-06T23:16:08.358Z,15.37
2022-12-06T23:18:36.247Z,17.80
2022-12-06T23:21:06.689Z,16.97
2022-12-06T23:23:34.922Z,15.57
2022-12-06T23:26:03.702Z,21.23
2022-12-06T23:28:33.561Z,25.07
2022-12-06T23:31:05.477Z,29.43
2022-12-06T23:33:33.405Z,23.63
2022-12-06T23:36:07.436Z,14.73
2022-12-06T23:38:35.727Z,14.00
2022-12-06T23:41:05.065Z,12.80
2022-12-06T23:43:34.383Z,14.30
2022-12-06T23:46:07.103Z,13.33
2022-12-06T23:48:35.865Z,11.43
2022-12-06T23:51:05.296Z,13.10
2022-12-06T23:53:33.162Z,12.73
2022-12-06T23:56:02.249Z,12.93
2022-12-06T23:58:29.993Z,12.63
